In Rescue
 
Open Full Screen Window  High Contrast Mode
Wind Gusting 00 knots
03
January 24, 2020 10:15 PM EST
Present Weather: Mist
Weather Information
Wind Direction
  180 °
Wind Speed
  03 kt (3 mph)
Wind Gust
  00 kt (0 mph)
Altimeter
29.78 in
Visibility
2 1/2 SM
Temperature
02° C
36° F
Dewpoint
02° C
36° F
Humidity
100%
Sky Condition
Overcast @ 2,400 ft
Broken @ 1,100 ft
Scattered @ 200 ft
IFR

METAR KLWA 250315Z AUTO 18003KT 2 1/2SM BR SCT002 BKN011 OVC024 02/02 A2978 RMK AO2 T00180018

FAA Disclaimer: The data displayed is for advisory purposes only and is not to be used for flight planning or operations.